createdAt,value
2023-01-28T00:01:09.152Z,48.50
2023-01-28T00:03:37.633Z,48.51
2023-01-28T00:06:09.700Z,48.27
2023-01-28T00:08:37.960Z,48.40
2023-01-28T00:11:08.694Z,48.40
2023-01-28T00:13:36.847Z,48.50
2023-01-28T00:16:08.579Z,48.36
2023-01-28T00:18:37.454Z,48.55
2023-01-28T00:21:09.158Z,48.53
2023-01-28T00:23:38.813Z,48.47
2023-01-28T00:26:11.053Z,48.32
2023-01-28T00:28:39.214Z,48.35
2023-01-28T00:31:09.923Z,48.40
2023-01-28T00:33:43.277Z,48.53
2023-01-28T00:36:13.892Z,48.30
2023-01-28T00:38:43.289Z,48.40
2023-01-28T00:41:13.740Z,48.42
2023-01-28T00:43:42.951Z,48.42
2023-01-28T00:46:12.356Z,48.35
2023-01-28T00:48:42.155Z,48.46
2023-01-28T00:51:13.694Z,48.46
2023-01-28T00:53:42.150Z,48.49
2023-01-28T00:56:14.010Z,48.40
2023-01-28T00:58:42.790Z,48.41
2023-01-28T01:01:12.642Z,48.46
2023-01-28T01:03:40.938Z,48.51
2023-01-28T01:06:10.049Z,48.62
2023-01-28T01:08:43.073Z,48.56
2023-01-28T01:11:13.154Z,48.72
2023-01-28T01:13:41.418Z,48.56
2023-01-28T01:16:12.746Z,48.66
2023-01-28T01:18:42.032Z,48.61
2023-01-28T01:21:12.505Z,48.49
2023-01-28T01:23:42.136Z,48.64
2023-01-28T01:26:10.322Z,48.62
2023-01-28T01:28:39.042Z,48.52
2023-01-28T01:31:09.402Z,48.59
2023-01-28T01:33:37.465Z,48.51
2023-01-28T01:36:05.923Z,48.30
2023-01-28T01:38:34.026Z,48.56
2023-01-28T01:41:04.071Z,48.63
2023-01-28T01:43:49.710Z,48.57
2023-01-28T01:46:23.118Z,48.41
2023-01-28T01:48:52.058Z,48.63
2023-01-28T01:51:25.581Z,48.53
2023-01-28T01:53:55.549Z,48.53
2023-01-28T01:56:31.166Z,48.55
2023-01-28T01:58:59.835Z,48.53
2023-01-28T02:01:32.361Z,48.58
2023-01-28T02:04:07.216Z,48.65
2023-01-28T02:06:36.560Z,48.59
2023-01-28T02:09:07.885Z,48.70
2023-01-28T02:11:37.934Z,48.77
2023-01-28T02:14:07.707Z,48.59
2023-01-28T02:16:36.032Z,48.67
2023-01-28T02:19:04.637Z,48.77
2023-01-28T02:22:03.139Z,48.77
2023-01-28T02:25:12.667Z,48.89
2023-01-28T02:28:00.487Z,48.90
2023-01-28T02:30:34.718Z,48.88
2023-01-28T02:33:07.942Z,48.81
2023-01-28T02:35:43.877Z,48.96
2023-01-28T02:38:16.388Z,48.91
2023-01-28T02:41:03.417Z,48.90
2023-01-28T02:43:34.616Z,48.92
2023-01-28T02:46:32.321Z,48.89
2023-01-28T02:49:00.856Z,48.91
2023-01-28T02:51:40.933Z,49.00
2023-01-28T02:54:14.778Z,48.79
2023-01-28T02:56:50.943Z,48.91
2023-01-28T02:59:34.198Z,49.37
2023-01-28T03:02:10.207Z,49.57
2023-01-28T03:04:44.859Z,49.84
2023-01-28T03:07:16.986Z,50.01
2023-01-28T03:09:48.638Z,50.02
2023-01-28T03:12:39.705Z,50.16
2023-01-28T03:15:29.817Z,50.00
2023-01-28T03:18:20.349Z,49.96
2023-01-28T03:21:11.165Z,49.70
2023-01-28T03:24:01.250Z,49.70
2023-01-28T03:26:50.573Z,49.70
2023-01-28T03:29:41.723Z,49.81
2023-01-28T03:32:30.638Z,49.77
2023-01-28T03:35:17.253Z,49.95
2023-01-28T03:37:45.629Z,49.73
2023-01-28T03:40:15.052Z,49.85
2023-01-28T03:42:43.419Z,50.00
2023-01-28T03:45:14.403Z,49.83
2023-01-28T03:47:44.617Z,50.02
2023-01-28T03:50:13.239Z,49.85
2023-01-28T03:52:42.841Z,49.74
2023-01-28T03:55:15.056Z,49.78
2023-01-28T03:57:46.697Z,49.57
2023-01-28T04:00:18.259Z,49.63
2023-01-28T04:02:47.939Z,49.61
2023-01-28T04:05:19.861Z,49.67
2023-01-28T04:07:47.946Z,49.65
2023-01-28T04:10:17.027Z,49.40
2023-01-28T04:12:45.543Z,49.66
2023-01-28T04:15:16.821Z,49.67
2023-01-28T04:17:47.684Z,49.45
2023-01-28T04:20:22.398Z,49.40
2023-01-28T04:22:50.511Z,49.39
2023-01-28T04:25:18.732Z,49.57
2023-01-28T04:27:46.953Z,49.40
2023-01-28T04:30:15.386Z,49.31
2023-01-28T04:32:50.448Z,49.32
2023-01-28T04:35:18.950Z,49.55
2023-01-28T04:37:47.184Z,49.48
2023-01-28T04:40:15.524Z,49.67
2023-01-28T04:42:44.156Z,49.86
2023-01-28T04:45:12.875Z,50.00
2023-01-28T04:47:41.142Z,50.02
2023-01-28T04:50:11.623Z,49.98
2023-01-28T04:52:40.390Z,49.81
2023-01-28T04:55:09.637Z,49.76
2023-01-28T04:57:37.936Z,49.65
2023-01-28T05:00:07.405Z,49.60
2023-01-28T05:02:35.718Z,49.55
2023-01-28T05:05:06.153Z,49.63
2023-01-28T05:07:36.100Z,49.40
2023-01-28T05:10:05.467Z,49.20
2023-01-28T05:12:34.156Z,49.35
2023-01-28T05:15:02.217Z,49.13
2023-01-28T05:17:30.473Z,49.00
2023-01-28T05:19:58.735Z,48.83
2023-01-28T05:22:27.011Z,48.93
2023-01-28T05:24:56.665Z,48.86
2023-01-28T05:27:25.008Z,48.78
2023-01-28T05:29:53.164Z,48.67
2023-01-28T05:32:21.498Z,48.58
2023-01-28T05:34:49.724Z,48.43
2023-01-28T05:37:17.956Z,48.41
2023-01-28T05:39:46.311Z,48.31
2023-01-28T05:42:17.529Z,48.24
2023-01-28T05:44:45.638Z,48.28
2023-01-28T05:47:13.799Z,48.16
2023-01-28T05:49:42.442Z,48.26
2023-01-28T05:52:10.496Z,48.18
2023-01-28T05:54:38.640Z,48.18
2023-01-28T05:57:07.133Z,48.17
2023-01-28T05:59:37.991Z,48.16
2023-01-28T06:02:06.164Z,48.06
2023-01-28T06:04:34.405Z,48.18
2023-01-28T06:07:02.581Z,48.13
2023-01-28T06:09:30.701Z,48.15
2023-01-28T06:11:58.757Z,48.20
2023-01-28T06:14:26.832Z,48.15
2023-01-28T06:16:56.258Z,48.14
2023-01-28T06:19:24.381Z,47.97
2023-01-28T06:21:52.510Z,48.05
2023-01-28T06:24:20.609Z,48.09
2023-01-28T06:26:48.842Z,48.00
2023-01-28T06:29:17.055Z,48.34
2023-01-28T06:31:45.464Z,48.19
2023-01-28T06:34:15.446Z,48.18
2023-01-28T06:36:43.554Z,48.27
2023-01-28T06:39:12.199Z,48.38
2023-01-28T06:41:40.407Z,48.43
2023-01-28T06:44:08.560Z,48.28
2023-01-28T06:46:36.953Z,48.34
2023-01-28T06:49:05.283Z,48.45
2023-01-28T06:51:34.734Z,48.48
2023-01-28T06:54:03.068Z,48.37
2023-01-28T06:56:31.212Z,48.34
2023-01-28T06:58:59.294Z,48.59
2023-01-28T07:01:27.649Z,48.44
2023-01-28T07:03:55.975Z,48.35
2023-01-28T07:06:24.472Z,48.48
2023-01-28T07:08:53.911Z,48.51
2023-01-28T07:11:22.426Z,48.41
2023-01-28T07:13:50.817Z,48.33
2023-01-28T07:16:18.985Z,48.47
2023-01-28T07:18:50.844Z,48.49
2023-01-28T07:21:19.081Z,48.60
2023-01-28T07:23:47.432Z,48.74
2023-01-28T07:26:16.943Z,48.67
2023-01-28T07:28:45.053Z,48.59
2023-01-28T07:31:14.480Z,48.44
2023-01-28T07:33:42.889Z,48.26
2023-01-28T07:36:11.127Z,48.49
2023-01-28T07:38:39.231Z,48.22
2023-01-28T07:41:07.363Z,48.35
2023-01-28T07:43:36.903Z,48.18
2023-01-28T07:46:05.377Z,48.02
2023-01-28T07:48:33.451Z,47.93
2023-01-28T07:51:01.585Z,47.94
2023-01-28T07:53:29.735Z,47.85
2023-01-28T07:56:00.847Z,47.81
2023-01-28T07:58:29.268Z,47.80
2023-01-28T08:00:59.801Z,47.77
2023-01-28T08:03:28.702Z,47.72
2023-01-28T08:05:58.054Z,47.74
2023-01-28T08:08:27.734Z,47.78
2023-01-28T08:10:55.914Z,47.82
2023-01-28T08:13:24.003Z,47.79
2023-01-28T08:15:56.718Z,47.76
2023-01-28T08:18:26.378Z,47.79
2023-01-28T08:20:56.531Z,47.78
2023-01-28T08:23:26.925Z,47.84
2023-01-28T08:25:55.881Z,47.95
2023-01-28T08:28:24.056Z,47.96
2023-01-28T08:30:52.360Z,47.86
2023-01-28T08:33:21.476Z,48.00
2023-01-28T08:35:50.900Z,48.00
2023-01-28T08:38:20.411Z,47.89
2023-01-28T08:40:50.497Z,48.00
2023-01-28T08:43:18.567Z,48.22
2023-01-28T08:45:46.631Z,48.11
2023-01-28T08:48:17.862Z,48.12
2023-01-28T08:50:46.076Z,48.21
2023-01-28T08:53:17.297Z,48.50
2023-01-28T08:55:46.360Z,48.51
2023-01-28T08:58:15.953Z,48.67
2023-01-28T09:00:45.094Z,48.53
2023-01-28T09:03:13.231Z,48.75
2023-01-28T09:05:41.717Z,48.58
2023-01-28T09:08:11.754Z,48.65
2023-01-28T09:10:42.383Z,48.76
2023-01-28T09:13:12.529Z,48.62
2023-01-28T09:15:41.162Z,48.47
2023-01-28T09:18:09.753Z,48.39
2023-01-28T09:20:38.985Z,48.45
2023-01-28T09:23:08.146Z,48.60
2023-01-28T09:25:37.198Z,48.56
2023-01-28T09:28:07.492Z,48.72
2023-01-28T09:30:37.876Z,48.55
2023-01-28T09:33:07.574Z,48.46
2023-01-28T09:35:36.927Z,48.64
2023-01-28T09:38:07.955Z,48.82
2023-01-28T09:40:43.367Z,48.74
2023-01-28T09:43:52.639Z,48.72
2023-01-28T09:46:20.828Z,48.49
2023-01-28T09:48:52.123Z,48.65
2023-01-28T09:51:33.015Z,48.40
2023-01-28T09:54:08.048Z,50.59
2023-01-28T09:56:42.524Z,51.95
2023-01-28T09:59:20.167Z,51.44
2023-01-28T10:01:54.582Z,51.85
2023-01-28T10:04:40.458Z,51.55
2023-01-28T10:07:26.166Z,51.34
2023-01-28T10:10:02.727Z,50.94
2023-01-28T10:12:54.595Z,50.70
2023-01-28T10:15:48.256Z,50.42
2023-01-28T10:18:18.204Z,50.00
2023-01-28T10:20:50.655Z,49.83
2023-01-28T10:23:23.696Z,49.81
2023-01-28T10:25:52.012Z,49.75
2023-01-28T10:28:24.107Z,49.60
2023-01-28T10:30:54.194Z,49.37
2023-01-28T10:33:30.683Z,49.46
2023-01-28T10:35:59.032Z,49.36
2023-01-28T10:38:28.973Z,49.47
2023-01-28T10:41:01.571Z,49.29
2023-01-28T10:43:34.564Z,49.34
2023-01-28T10:46:08.725Z,49.35
2023-01-28T10:48:42.318Z,49.06
2023-01-28T10:51:10.400Z,49.06
2023-01-28T10:53:40.773Z,49.08
2023-01-28T10:56:11.772Z,49.49
2023-01-28T10:58:58.324Z,49.73
2023-01-28T11:01:40.316Z,49.86
2023-01-28T11:04:20.310Z,50.83
2023-01-28T11:06:59.446Z,50.43
2023-01-28T11:09:30.863Z,50.23
2023-01-28T11:11:59.877Z,50.09
2023-01-28T11:14:28.826Z,50.02
2023-01-28T11:16:59.587Z,49.99
2023-01-28T11:19:35.723Z,50.01
2023-01-28T11:22:04.485Z,49.85
2023-01-28T11:24:35.271Z,49.83
2023-01-28T11:27:25.131Z,49.60
2023-01-28T11:29:57.465Z,49.35
2023-01-28T11:32:28.053Z,49.24
2023-01-28T11:34:59.127Z,49.40
2023-01-28T11:37:29.283Z,49.37
2023-01-28T11:40:19.140Z,49.17
2023-01-28T11:42:51.058Z,49.13
2023-01-28T11:45:21.845Z,49.05
2023-01-28T11:48:02.013Z,48.96
2023-01-28T11:50:43.694Z,48.98
2023-01-28T11:53:40.414Z,48.79
2023-01-28T11:56:23.248Z,48.72
2023-01-28T11:59:02.227Z,48.58
2023-01-28T12:01:38.462Z,48.58
2023-01-28T12:04:34.441Z,48.48
2023-01-28T12:07:22.250Z,48.37
2023-01-28T12:09:57.934Z,48.54
2023-01-28T12:12:59.631Z,48.51
2023-01-28T12:16:01.617Z,48.47
2023-01-28T12:18:45.084Z,48.46
2023-01-28T12:21:21.755Z,48.44
2023-01-28T12:24:03.118Z,48.40
2023-01-28T12:26:43.771Z,48.26
2023-01-28T12:29:24.016Z,48.33
2023-01-28T12:32:28.775Z,48.18
2023-01-28T12:35:13.243Z,48.27
2023-01-28T12:37:57.353Z,48.16
2023-01-28T12:40:58.140Z,48.15
2023-01-28T12:43:43.604Z,48.15
2023-01-28T12:46:19.798Z,48.17
2023-01-28T12:48:52.638Z,48.04
2023-01-28T12:51:26.031Z,48.24
2023-01-28T12:54:01.572Z,47.94
2023-01-28T12:56:34.617Z,47.74
2023-01-28T12:59:08.149Z,47.96
2023-01-28T13:01:42.836Z,47.90
2023-01-28T13:04:18.983Z,48.00
2023-01-28T13:06:52.376Z,47.82
2023-01-28T13:09:25.653Z,47.80
2023-01-28T13:11:55.300Z,47.67
2023-01-28T13:14:29.601Z,48.01
2023-01-28T13:16:57.777Z,47.87
2023-01-28T13:19:40.068Z,48.12
2023-01-28T13:22:14.815Z,48.21
2023-01-28T13:24:44.388Z,48.20
2023-01-28T13:27:16.286Z,48.29
2023-01-28T13:29:49.985Z,48.06
2023-01-28T13:32:33.822Z,48.00
2023-01-28T13:35:06.026Z,47.94
2023-01-28T13:37:38.740Z,48.25
2023-01-28T13:40:24.418Z,48.48
2023-01-28T13:43:01.049Z,48.53
2023-01-28T13:45:29.735Z,48.80
2023-01-28T13:48:05.001Z,48.65
2023-01-28T13:50:40.352Z,49.56
2023-01-28T13:53:20.360Z,49.70
2023-01-28T13:55:54.201Z,49.71
2023-01-28T13:59:10.017Z,49.52
2023-01-28T14:02:26.709Z,49.60
2023-01-28T14:05:37.003Z,49.61
2023-01-28T14:08:42.171Z,49.55
2023-01-28T14:11:28.193Z,49.71
2023-01-28T14:14:16.463Z,49.66
2023-01-28T14:16:52.217Z,49.26
2023-01-28T14:19:27.408Z,49.17
2023-01-28T14:21:56.748Z,49.38
2023-01-28T14:24:25.742Z,49.38
2023-01-28T14:27:02.802Z,50.07
2023-01-28T14:29:48.575Z,50.12
2023-01-28T14:32:20.163Z,50.21
2023-01-28T14:34:49.113Z,50.33
2023-01-28T14:37:19.845Z,50.93
2023-01-28T14:39:52.324Z,51.55
2023-01-28T14:42:24.429Z,51.94
2023-01-28T14:45:02.650Z,51.96
2023-01-28T16:10:34.328Z,55.06
2023-01-28T16:13:07.374Z,55.25
2023-01-28T16:15:38.425Z,55.30
2023-01-28T16:18:07.994Z,55.78
2023-01-28T16:20:36.529Z,56.09
2023-01-28T16:23:05.504Z,56.62
2023-01-28T16:25:38.141Z,57.08
2023-01-28T16:28:21.171Z,57.64
2023-01-28T16:30:49.652Z,57.71
2023-01-28T16:33:20.466Z,57.86
2023-01-28T16:36:06.228Z,58.09
2023-01-28T16:38:36.010Z,58.43
2023-01-28T16:41:05.783Z,56.64
2023-01-28T16:46:04.162Z,56.39
2023-01-28T16:48:33.604Z,56.20
2023-01-28T16:51:01.997Z,56.01
2023-01-28T16:53:34.723Z,55.84
2023-01-28T16:56:03.545Z,55.51
2023-01-28T16:58:33.100Z,55.30
2023-01-28T17:01:01.658Z,55.11
2023-01-28T17:03:29.891Z,54.83
2023-01-28T17:05:58.505Z,54.85
2023-01-28T17:08:26.852Z,54.61
2023-01-28T17:10:55.754Z,54.80
2023-01-28T17:13:24.141Z,54.40
2023-01-28T17:15:54.065Z,54.15
2023-01-28T17:18:22.321Z,54.54
2023-01-28T17:20:50.810Z,54.37
2023-01-28T17:23:23.047Z,54.54
2023-01-28T17:25:51.440Z,54.50
2023-01-28T17:28:20.121Z,54.31
2023-01-28T17:30:48.431Z,54.00
2023-01-28T17:33:18.120Z,53.87
2023-01-28T17:35:48.079Z,53.70
2023-01-28T17:38:16.581Z,53.46
2023-01-28T17:40:44.782Z,53.30
2023-01-28T17:43:12.941Z,53.29
2023-01-28T17:45:41.064Z,52.93
2023-01-28T17:48:09.296Z,52.89
2023-01-28T17:50:41.405Z,52.75
2023-01-28T17:53:11.784Z,52.72
2023-01-28T17:55:40.294Z,52.48
2023-01-28T17:58:08.319Z,52.49
2023-01-28T18:00:38.502Z,52.21
2023-01-28T18:03:06.815Z,52.13
2023-01-28T18:05:34.892Z,52.10
2023-01-28T18:08:05.071Z,51.86
2023-01-28T18:10:33.247Z,51.77
2023-01-28T18:13:01.814Z,51.88
2023-01-28T18:15:30.125Z,51.61
2023-01-28T18:17:58.191Z,51.74
2023-01-28T18:20:26.463Z,51.52
2023-01-28T18:22:54.859Z,51.63
2023-01-28T18:25:24.692Z,51.50
2023-01-28T18:27:53.290Z,51.39
2023-01-28T18:30:22.710Z,51.41
2023-01-28T18:32:50.794Z,51.21
2023-01-28T18:35:19.157Z,51.23
2023-01-28T18:37:47.610Z,51.00
2023-01-28T18:40:16.858Z,50.93
2023-01-28T18:42:46.807Z,50.80
2023-01-28T18:45:15.495Z,50.80
2023-01-28T18:47:43.862Z,50.61
2023-01-28T18:50:14.142Z,50.50
2023-01-28T18:52:44.324Z,50.50
2023-01-28T18:55:12.855Z,50.37
2023-01-28T18:57:41.034Z,50.35
2023-01-28T19:00:12.441Z,50.28
2023-01-28T19:02:41.497Z,50.08
2023-01-28T19:05:11.008Z,50.08
2023-01-28T19:07:39.490Z,49.98
2023-01-28T19:10:08.411Z,50.05
2023-01-28T19:12:37.414Z,49.93
2023-01-28T19:15:06.703Z,50.05
2023-01-28T19:17:36.505Z,49.74
2023-01-28T19:20:05.941Z,49.74
2023-01-28T19:22:35.182Z,49.74
2023-01-28T19:25:04.336Z,49.69
2023-01-28T19:27:32.545Z,49.73
2023-01-28T19:30:02.763Z,49.69
2023-01-28T19:32:31.640Z,49.43
2023-01-28T19:35:01.627Z,49.51
2023-01-28T19:37:30.457Z,49.48
2023-01-28T19:39:58.708Z,49.32
2023-01-28T19:42:27.114Z,49.34
2023-01-28T19:44:55.435Z,49.29
2023-01-28T19:47:23.852Z,49.18
2023-01-28T19:49:52.106Z,49.09
2023-01-28T19:52:21.599Z,49.01
2023-01-28T19:54:49.891Z,48.90
2023-01-28T19:57:21.597Z,48.73
2023-01-28T19:59:49.815Z,48.73
2023-01-28T20:02:18.080Z,48.82
2023-01-28T20:04:59.780Z,48.54
2023-01-28T20:07:30.499Z,48.74
2023-01-28T20:09:59.816Z,48.51
2023-01-28T20:12:28.908Z,48.62
2023-01-28T20:14:57.188Z,48.50
2023-01-28T20:17:28.519Z,48.51
2023-01-28T20:19:57.025Z,48.58
2023-01-28T20:22:25.308Z,48.62
2023-01-28T20:24:57.804Z,48.49
2023-01-28T20:27:26.151Z,48.60
2023-01-28T20:29:55.234Z,48.63
2023-01-28T20:32:23.784Z,48.29
2023-01-28T20:34:52.763Z,48.40
2023-01-28T20:37:21.170Z,48.26
2023-01-28T20:39:49.699Z,48.35
2023-01-28T20:42:19.749Z,48.31
2023-01-28T20:44:48.414Z,48.12
2023-01-28T20:47:16.643Z,48.32
2023-01-28T20:49:44.778Z,48.08
2023-01-28T20:52:13.197Z,48.14
2023-01-28T20:54:41.977Z,47.85
2023-01-28T20:57:10.354Z,47.81
2023-01-28T20:59:41.400Z,47.99
2023-01-28T21:02:10.309Z,47.92
2023-01-28T21:04:38.648Z,47.67
2023-01-28T21:07:06.692Z,47.59
2023-01-28T21:09:35.134Z,47.64
2023-01-28T21:12:03.389Z,47.50
2023-01-28T21:14:31.709Z,47.53
2023-01-28T21:17:01.223Z,47.56
2023-01-28T21:19:29.767Z,47.52
2023-01-28T21:21:58.315Z,47.56
2023-01-28T21:24:26.430Z,47.59
2023-01-28T21:26:54.890Z,47.87
2023-01-28T21:29:23.149Z,47.60
2023-01-28T21:31:51.281Z,47.76
2023-01-28T21:34:20.905Z,47.69
2023-01-28T21:36:49.174Z,47.58
2023-01-28T21:39:17.495Z,47.88
2023-01-28T21:41:45.659Z,47.62
2023-01-28T21:44:13.748Z,47.87
2023-01-28T21:46:41.923Z,47.82
2023-01-28T21:49:11.903Z,47.92
2023-01-28T21:51:46.119Z,48.13
2023-01-28T21:54:15.682Z,48.06
2023-01-28T21:56:44.996Z,47.80
2023-01-28T21:59:32.650Z,47.75
2023-01-28T22:02:02.426Z,47.59
2023-01-28T22:04:33.645Z,47.75
2023-01-28T22:07:04.442Z,47.56
2023-01-28T22:09:33.781Z,47.69
2023-01-28T22:12:03.407Z,47.64
2023-01-28T22:14:31.634Z,47.63
2023-01-28T22:16:59.910Z,47.75
2023-01-28T22:19:28.229Z,47.78
2023-01-28T22:21:56.384Z,47.79
2023-01-28T22:24:26.224Z,47.93
2023-01-28T22:26:55.563Z,48.06
2023-01-28T22:29:25.049Z,48.07
2023-01-28T22:31:54.815Z,48.15
2023-01-28T22:34:23.509Z,48.07
2023-01-28T22:36:52.631Z,48.31
2023-01-28T22:39:20.783Z,48.11
2023-01-28T22:41:50.256Z,48.19
2023-01-28T22:44:19.934Z,48.11
2023-01-28T22:46:48.504Z,48.17
2023-01-28T22:49:16.678Z,48.14
2023-01-28T22:51:45.119Z,48.25
2023-01-28T22:54:14.910Z,48.27
2023-01-28T22:56:43.462Z,48.29
2023-01-28T22:59:13.294Z,48.35
2023-01-28T23:01:41.632Z,48.33
2023-01-28T23:04:10.056Z,48.48
2023-01-28T23:06:38.254Z,48.46
2023-01-28T23:09:06.359Z,48.43
2023-01-28T23:11:34.787Z,48.29
2023-01-28T23:14:21.799Z,48.53
2023-01-28T23:17:20.458Z,48.46
2023-01-28T23:20:06.384Z,48.46
2023-01-28T23:22:52.591Z,48.40
2023-01-28T23:25:21.225Z,48.55
2023-01-28T23:27:49.335Z,48.67
2023-01-28T23:30:19.806Z,48.75
2023-01-28T23:32:50.988Z,48.77
2023-01-28T23:35:20.159Z,48.58
2023-01-28T23:37:48.856Z,48.62
2023-01-28T23:40:17.842Z,48.65
2023-01-28T23:42:49.553Z,48.74
2023-01-28T23:45:18.247Z,48.63
2023-01-28T23:47:46.543Z,48.87
2023-01-28T23:50:18.594Z,48.84
2023-01-28T23:52:47.055Z,48.69
2023-01-28T23:55:15.431Z,48.71
2023-01-28T23:57:43.556Z,48.83
